Time;durP1;ratioP1;P1;durP2;ratioP2;P2;SDS_P1;SDS_P2;PMS_P1;PMS_P2;Temp;Humidity;BMP_temperature;BMP_pressure;BME280_temperature;BME280_humidity;BME280_pressure;Samples;Min_cycle;Max_cycle;Signal;HPM_P1;HPM_P2
2023/01/10 00:01:46;;;;;;;;;;;;;;;4.66;96.25;101171.53;5075033;28;20007;-60
2023/01/10 00:04:12;;;;;;;;;;;;;;;4.63;96.07;101188.41;5084549;28;20018;-62
2023/01/10 00:06:37;;;;;;;;;;;;;;;4.62;96.12;101188.50;5073803;28;19942;-60
2023/01/10 00:09:02;;;;;;;;;;;;;;;4.61;96.40;101189.47;5073049;28;19919;-61
2023/01/10 00:14:11;;;;;;;;;;;;;;;4.60;96.78;101203.59;5072954;28;20432;-60
2023/01/10 00:16:38;;;;;;;;;;;;;;;4.59;96.86;101196.66;5074108;28;19924;-61
2023/01/10 00:19:03;;;;;;;;;;;;;;;4.56;96.76;101212.69;5071497;28;20030;-58
2023/01/10 00:21:29;;;;;;;;;;;;;;;4.49;96.54;101216.75;5078369;28;20015;-58
2023/01/10 00:23:57;;;;;;;;;;;;;;;4.43;96.85;101228.63;5071213;28;19916;-61
2023/01/10 00:26:22;;;;;;;;;;;;;;;4.36;96.87;101230.06;5077607;28;19920;-59
2023/01/10 00:28:48;;;;;;;;;;;;;;;4.31;97.01;101229.56;5072559;28;19966;-62
2023/01/10 00:31:15;;;;;;;;;;;;;;;4.30;97.13;101231.34;5073119;28;19963;-60
2023/01/10 00:33:40;;;;;;;;;;;;;;;4.29;97.44;101228.84;5070392;28;20315;-61
2023/01/10 00:36:06;;;;;;;;;;;;;;;4.27;97.25;101230.75;5073576;28;19920;-61
2023/01/10 00:38:34;;;;;;;;;;;;;;;4.25;97.34;101241.41;5069763;28;20498;-61
2023/01/10 00:40:59;;;;;;;;;;;;;;;4.22;97.48;101233.75;5071556;28;19916;-59
2023/01/10 00:46:09;;;;;;;;;;;;;;;4.18;97.38;101255.16;5068597;28;19971;-60
2023/01/10 00:48:34;;;;;;;;;;;;;;;4.17;97.54;101258.72;5074156;28;20380;-61
2023/01/10 00:50:59;;;;;;;;;;;;;;;4.14;97.30;101254.56;5069246;28;19923;-58
2023/01/10 00:53:25;;;;;;;;;;;;;;;4.13;97.17;101246.78;5075535;28;19924;-61
2023/01/10 00:55:50;;;;;;;;;;;;;;;4.14;97.58;101254.56;5074361;28;20339;-63
2023/01/10 00:58:15;;;;;;;;;;;;;;;4.15;97.23;101244.88;5071000;28;20403;-61
2023/01/10 01:00:41;;;;;;;;;;;;;;;4.19;97.29;101259.44;5069969;28;19956;-63
2023/01/10 01:03:07;;;;;;;;;;;;;;;4.19;97.15;101264.69;5070258;28;19916;-61
2023/01/10 01:05:32;;;;;;;;;;;;;;;4.21;97.13;101268.88;5070718;28;19924;-58
2023/01/10 01:07:57;;;;;;;;;;;;;;;4.20;96.99;101272.47;5077596;28;20015;-60
2023/01/10 01:10:25;;;;;;;;;;;;;;;4.19;96.93;101288.34;5070326;28;19916;-60
2023/01/10 01:12:54;;;;;;;;;;;;;;;4.20;96.94;101295.28;5071568;28;19917;-64
2023/01/10 01:15:20;;;;;;;;;;;;;;;4.20;97.04;101298.75;5070616;28;19920;-60
2023/01/10 01:17:46;;;;;;;;;;;;;;;4.21;97.34;101300.44;5071480;28;19999;-60
2023/01/10 01:20:12;;;;;;;;;;;;;;;4.26;97.44;101302.69;5072551;28;19928;-62
2023/01/10 01:22:37;;;;;;;;;;;;;;;4.34;97.36;101302.97;5072612;28;19924;-61
2023/01/10 01:25:03;;;;;;;;;;;;;;;4.38;97.49;101312.28;5070175;28;19931;-60
2023/01/10 01:27:28;;;;;;;;;;;;;;;4.41;97.43;101301.53;5074865;28;19946;-60
2023/01/10 01:29:54;;;;;;;;;;;;;;;4.43;97.57;101310.13;5070764;28;19924;-62
2023/01/10 01:32:20;;;;;;;;;;;;;;;4.46;97.68;101312.50;5072761;28;20392;-61
2023/01/10 01:34:45;;;;;;;;;;;;;;;4.48;97.43;101310.59;5080981;28;19920;-62
2023/01/10 01:37:10;;;;;;;;;;;;;;;4.50;97.83;101302.59;5074240;28;19985;-60
2023/01/10 01:39:36;;;;;;;;;;;;;;;4.54;97.78;101315.38;5069460;28;19916;-60
2023/01/10 01:42:01;;;;;;;;;;;;;;;4.58;97.73;101315.97;5074295;28;19981;-60
2023/01/10 01:44:31;;;;;;;;;;;;;;;4.59;97.79;101323.75;5069045;28;19963;-61
2023/01/10 01:47:02;;;;;;;;;;;;;;;4.61;97.87;101318.34;5068457;28;19923;-61
2023/01/10 01:49:27;;;;;;;;;;;;;;;4.59;97.92;101315.84;5073752;28;20384;-61
2023/01/10 01:51:58;;;;;;;;;;;;;;;4.59;98.09;101318.47;5073112;28;19948;-61
2023/01/10 01:54:24;;;;;;;;;;;;;;;4.61;98.17;101328.88;5072035;28;19929;-58
2023/01/10 01:56:52;;;;;;;;;;;;;;;4.59;98.19;101329.00;5078696;28;20292;-60
2023/01/10 01:59:21;;;;;;;;;;;;;;;4.59;98.23;101338.69;5071176;28;19916;-61
2023/01/10 02:01:49;;;;;;;;;;;;;;;4.57;98.69;101335.34;5077063;28;20384;-63
2023/01/10 02:04:17;;;;;;;;;;;;;;;4.59;98.68;101341.31;5073611;28;20028;-58
2023/01/10 02:06:43;;;;;;;;;;;;;;;4.59;98.84;101339.53;5073083;28;20300;-60
2023/01/10 02:09:17;;;;;;;;;;;;;;;4.61;98.91;101342.88;5067400;28;20288;-61
2023/01/10 02:11:42;;;;;;;;;;;;;;;4.62;99.35;101348.97;5071153;28;19924;-60
2023/01/10 02:14:10;;;;;;;;;;;;;;;4.62;99.49;101351.59;5072657;28;19916;-61
2023/01/10 02:16:35;;;;;;;;;;;;;;;4.65;99.45;101339.06;5073259;28;19927;-61
2023/01/10 02:19:00;;;;;;;;;;;;;;;4.66;99.75;101342.53;5070008;28;19919;-60
2023/01/10 02:21:30;;;;;;;;;;;;;;;4.69;99.90;101355.44;5069228;28;19925;-61
2023/01/10 02:24:22;;;;;;;;;;;;;;;4.73;100.00;101353.41;5072034;28;20403;-62
2023/01/10 02:26:59;;;;;;;;;;;;;;;4.77;100.00;101360.09;5070447;28;19978;-58
2023/01/10 02:29:39;;;;;;;;;;;;;;;4.78;100.00;101353.88;5072969;28;19939;-59
2023/01/10 02:32:04;;;;;;;;;;;;;;;4.81;100.00;101361.53;5073912;28;19916;-61
2023/01/10 02:34:39;;;;;;;;;;;;;;;4.81;100.00;101353.63;5069418;28;19977;-62
2023/01/10 02:37:11;;;;;;;;;;;;;;;4.81;100.00;101354.47;5069926;28;19920;-60
2023/01/10 02:39:49;;;;;;;;;;;;;;;4.80;100.00;101365.94;5069748;28;19920;-61
2023/01/10 02:42:22;;;;;;;;;;;;;;;4.79;100.00;101360.81;5069325;28;20303;-59
2023/01/10 02:44:50;;;;;;;;;;;;;;;4.77;100.00;101358.31;5074421;28;19977;-60
2023/01/10 02:47:16;;;;;;;;;;;;;;;4.73;100.00;101358.66;5067844;28;20311;-60
2023/01/10 02:49:45;;;;;;;;;;;;;;;4.69;100.00;101360.72;5069672;28;20540;-60
2023/01/10 02:52:12;;;;;;;;;;;;;;;4.65;100.00;101362.75;5070529;28;19924;-60
2023/01/10 02:54:37;;;;;;;;;;;;;;;4.60;100.00;101356.97;5073504;28;19969;-61
2023/01/10 02:57:05;;;;;;;;;;;;;;;4.57;100.00;101354.59;5068598;28;20018;-61
2023/01/10 02:59:42;;;;;;;;;;;;;;;4.52;100.00;101356.75;5073627;28;19923;-62
2023/01/10 03:02:07;;;;;;;;;;;;;;;4.51;100.00;101365.59;5079984;28;20435;-61
2023/01/10 03:04:36;;;;;;;;;;;;;;;4.48;100.00;101368.47;5073551;28;20352;-59
2023/01/10 03:07:14;;;;;;;;;;;;;;;4.50;100.00;101369.19;5069217;28;20003;-61
2023/01/10 03:09:53;;;;;;;;;;;;;;;4.48;100.00;101383.41;5071762;28;19948;-60
2023/01/10 03:12:22;;;;;;;;;;;;;;;4.49;100.00;101380.66;5069419;28;19917;-60
2023/01/10 03:14:48;;;;;;;;;;;;;;;4.52;100.00;101388.31;5080606;28;19937;-58
2023/01/10 03:17:14;;;;;;;;;;;;;;;4.55;100.00;101389.84;5076449;28;19929;-61
2023/01/10 03:19:43;;;;;;;;;;;;;;;4.55;100.00;101393.31;5075156;28;19916;-61
2023/01/10 03:22:10;;;;;;;;;;;;;;;4.57;100.00;101396.66;5074219;28;19943;-60
2023/01/10 03:24:37;;;;;;;;;;;;;;;4.58;100.00;101400.97;5075125;28;19922;-60
2023/01/10 03:27:06;;;;;;;;;;;;;;;4.61;100.00;101410.41;5074512;28;19942;-60
2023/01/10 03:29:42;;;;;;;;;;;;;;;4.64;100.00;101410.22;5072244;28;20016;-61
2023/01/10 03:32:10;;;;;;;;;;;;;;;4.66;100.00;101409.13;5081179;28;19923;-60
2023/01/10 03:34:36;;;;;;;;;;;;;;;4.70;100.00;101416.78;5071945;28;19920;-61
2023/01/10 03:37:20;;;;;;;;;;;;;;;4.72;100.00;101420.97;5075015;28;19978;-63
2023/01/10 03:39:47;;;;;;;;;;;;;;;4.75;100.00;101428.63;5073958;28;19916;-59
2023/01/10 03:44:42;;;;;;;;;;;;;;;4.76;99.99;101424.19;5073988;28;19924;-60
2023/01/10 03:45:23;;;;;;;;;;;;;;;4.75;99.83;101433.06;5072222;28;19954;-63
2023/01/10 03:47:52;;;;;;;;;;;;;;;4.72;99.51;101439.38;5073662;28;19941;-61
2023/01/10 03:50:18;;;;;;;;;;;;;;;4.71;99.73;101445.59;5073301;28;20007;-60
2023/01/10 03:52:44;;;;;;;;;;;;;;;4.67;99.79;101446.81;5077742;28;19920;-61
2023/01/10 03:55:11;;;;;;;;;;;;;;;4.66;99.55;101447.75;5076845;28;19923;-60
2023/01/10 03:57:36;;;;;;;;;;;;;;;4.64;99.38;101447.03;5071154;28;19920;-60
2023/01/10 04:00:01;;;;;;;;;;;;;;;4.62;99.32;101455.03;5071430;28;19917;-61
2023/01/10 04:02:27;;;;;;;;;;;;;;;4.63;99.31;101459.34;5070529;28;20318;-60
2023/01/10 04:04:53;;;;;;;;;;;;;;;4.63;99.39;101469.03;5073400;28;19951;-62
2023/01/10 04:07:18;;;;;;;;;;;;;;;4.62;99.53;101467.34;5081355;28;19978;-62
2023/01/10 04:09:43;;;;;;;;;;;;;;;4.61;99.42;101477.03;5074755;28;20007;-58
2023/01/10 04:12:08;;;;;;;;;;;;;;;4.62;99.27;101470.81;5072953;28;19939;-62
2023/01/10 04:14:33;;;;;;;;;;;;;;;4.62;99.22;101470.81;5072681;28;19917;-60
2023/01/10 04:16:58;;;;;;;;;;;;;;;4.62;99.29;101481.31;5071927;28;20105;-60
2023/01/10 04:19:24;;;;;;;;;;;;;;;4.62;99.35;101489.22;5070395;28;19917;-61
2023/01/10 04:21:49;;;;;;;;;;;;;;;4.64;98.94;101487.34;5075233;28;19923;-61
2023/01/10 04:24:14;;;;;;;;;;;;;;;4.66;98.95;101488.06;5068687;28;19950;-61
2023/01/10 04:26:39;;;;;;;;;;;;;;;4.69;98.90;101494.88;5070488;28;19963;-62
2023/01/10 04:29:04;;;;;;;;;;;;;;;4.70;98.91;101495.72;5075968;28;19919;-61
2023/01/10 04:31:30;;;;;;;;;;;;;;;4.70;98.48;101498.34;5073539;28;19923;-60
2023/01/10 04:33:55;;;;;;;;;;;;;;;4.69;98.73;101499.28;5072240;28;19935;-61
2023/01/10 04:36:20;;;;;;;;;;;;;;;4.68;98.60;101490.56;5074081;28;20434;-60
2023/01/10 04:38:46;;;;;;;;;;;;;;;4.68;98.65;101484.47;5074679;28;19921;-58
2023/01/10 04:41:11;;;;;;;;;;;;;;;4.67;98.55;101478.38;5070743;28;21681;-60
2023/01/10 04:43:36;;;;;;;;;;;;;;;4.65;98.80;101482.91;5079050;28;19923;-62
2023/01/10 04:46:01;;;;;;;;;;;;;;;4.62;98.82;101481.31;5072698;28;20346;-58
2023/01/10 04:48:26;;;;;;;;;;;;;;;4.61;98.65;101484.91;5071449;28;19981;-60
2023/01/10 04:50:52;;;;;;;;;;;;;;;4.58;98.61;101495.66;5068799;28;19917;-63
2023/01/10 04:53:18;;;;;;;;;;;;;;;4.57;98.73;101495.78;5071284;28;19916;-61
2023/01/10 04:55:43;;;;;;;;;;;;;;;4.54;98.65;101509.16;5078978;28;19924;-63
2023/01/10 04:58:08;;;;;;;;;;;;;;;4.52;98.70;101495.28;5071381;28;19943;-61
2023/01/10 05:00:33;;;;;;;;;;;;;;;4.48;98.76;101510.47;5074343;28;20380;-62
2023/01/10 05:02:59;;;;;;;;;;;;;;;4.48;98.83;101509.63;5071887;28;19916;-60
2023/01/10 05:05:24;;;;;;;;;;;;;;;4.44;99.06;101500.31;5069684;28;20524;-59
2023/01/10 05:07:50;;;;;;;;;;;;;;;4.40;98.97;101496.22;5074146;28;19916;-61
2023/01/10 05:10:15;;;;;;;;;;;;;;;4.33;98.95;101509.81;5075041;28;20392;-60
2023/01/10 05:12:40;;;;;;;;;;;;;;;4.28;99.08;101505.84;5068471;28;20320;-59
2023/01/10 05:15:06;;;;;;;;;;;;;;;4.23;99.24;101507.97;5075162;28;19935;-63
2023/01/10 05:17:31;;;;;;;;;;;;;;;4.18;99.34;101524.09;5076583;28;19916;-61
2023/01/10 05:19:56;;;;;;;;;;;;;;;4.16;99.54;101536.50;5072692;28;19923;-59
2023/01/10 05:22:22;;;;;;;;;;;;;;;4.16;99.47;101541.78;5074881;28;20042;-60
2023/01/10 05:24:47;;;;;;;;;;;;;;;4.19;99.81;101559.94;5081340;28;19919;-59
2023/01/10 05:27:12;;;;;;;;;;;;;;;4.17;99.85;101558.38;5070408;28;19971;-61
2023/01/10 05:29:37;;;;;;;;;;;;;;;4.17;99.71;101555.75;5073878;28;20409;-60
2023/01/10 05:32:02;;;;;;;;;;;;;;;4.18;99.79;101550.38;5079196;28;19924;-61
2023/01/10 05:34:28;;;;;;;;;;;;;;;4.20;99.85;101550.28;5073762;28;19917;-60
2023/01/10 05:36:53;;;;;;;;;;;;;;;4.21;99.88;101555.41;5078374;28;19928;-61
2023/01/10 05:39:18;;;;;;;;;;;;;;;4.26;99.84;101557.72;5070416;28;20067;-62
2023/01/10 05:41:43;;;;;;;;;;;;;;;4.29;99.68;101547.81;5070440;28;19916;-60
2023/01/10 05:44:09;;;;;;;;;;;;;;;4.32;100.00;101554.63;5072838;28;20318;-61
2023/01/10 05:46:34;;;;;;;;;;;;;;;4.33;99.49;101562.41;5076845;28;19931;-60
2023/01/10 05:48:59;;;;;;;;;;;;;;;4.39;99.43;101566.38;5074703;28;19967;-60
2023/01/10 05:51:24;;;;;;;;;;;;;;;4.43;99.34;101573.09;5067852;28;19924;-60
2023/01/10 05:53:50;;;;;;;;;;;;;;;4.46;99.30;101572.88;5073466;28;20288;-60
2023/01/10 05:56:15;;;;;;;;;;;;;;;4.47;99.33;101573.72;5072941;28;20019;-60
2023/01/10 05:58:40;;;;;;;;;;;;;;;4.53;98.99;101579.34;5072947;28;19916;-60
2023/01/10 06:01:05;;;;;;;;;;;;;;;4.55;98.91;101593.22;5070123;28;20061;-63
2023/01/10 06:03:30;;;;;;;;;;;;;;;4.59;99.11;101583.31;5070040;28;19916;-61
2023/01/10 06:05:56;;;;;;;;;;;;;;;4.62;98.80;101601.50;5072665;28;19991;-60
2023/01/10 06:08:21;;;;;;;;;;;;;;;4.62;98.42;101589.19;5070782;28;19999;-58
2023/01/10 06:10:47;;;;;;;;;;;;;;;4.57;98.64;101580.78;5072247;28;20403;-58
2023/01/10 06:13:12;;;;;;;;;;;;;;;4.62;98.35;101591.81;5069503;28;19924;-60
2023/01/10 06:15:38;;;;;;;;;;;;;;;4.62;98.24;101590.97;5070256;28;19927;-61
2023/01/10 06:18:03;;;;;;;;;;;;;;;4.63;98.42;101579.53;5079693;28;19934;-59
2023/01/10 06:20:29;;;;;;;;;;;;;;;4.63;98.02;101590.88;5075448;28;19916;-61
2023/01/10 06:22:54;;;;;;;;;;;;;;;4.64;97.92;101597.81;5067813;28;19924;-61
2023/01/10 06:25:19;;;;;;;;;;;;;;;4.66;97.90;101595.06;5071294;28;20482;-59
2023/01/10 06:27:44;;;;;;;;;;;;;;;4.65;97.71;101607.38;5079053;28;20367;-59
2023/01/10 06:30:11;;;;;;;;;;;;;;;4.69;97.65;101610.63;5075399;28;19916;-60
2023/01/10 06:32:36;;;;;;;;;;;;;;;4.70;97.50;101603.56;5084036;28;19963;-61
2023/01/10 06:35:02;;;;;;;;;;;;;;;4.70;97.55;101601.78;5077826;28;19947;-59
2023/01/10 06:37:27;;;;;;;;;;;;;;;4.70;97.29;101603.56;5078323;28;20409;-60
2023/01/10 06:39:52;;;;;;;;;;;;;;;4.69;97.35;101602.75;5084958;28;20356;-60
2023/01/10 06:42:17;;;;;;;;;;;;;;;4.69;97.21;101615.06;5086206;28;19923;-58
2023/01/10 06:44:42;;;;;;;;;;;;;;;4.66;96.88;101616.97;5079896;28;19915;-60
2023/01/10 06:47:07;;;;;;;;;;;;;;;4.65;97.10;101620.53;5088512;28;19919;-61
2023/01/10 06:49:33;;;;;;;;;;;;;;;4.59;96.88;101618.34;5081957;28;19913;-60
2023/01/10 06:51:58;;;;;;;;;;;;;;;4.55;96.86;101622.16;5089825;28;20019;-60
2023/01/10 06:54:23;;;;;;;;;;;;;;;4.47;96.86;101628.94;5081926;28;19959;-60
2023/01/10 06:56:48;;;;;;;;;;;;;;;4.39;96.69;101626.88;5086656;28;19998;-60
2023/01/10 06:59:14;;;;;;;;;;;;;;;4.28;97.03;101632.03;5083183;28;19961;-60
2023/01/10 07:01:39;;;;;;;;;;;;;;;4.23;97.19;101642.06;5085437;28;19916;-62
2023/01/10 07:04:04;;;;;;;;;;;;;;;4.18;97.12;101650.28;5080307;28;19912;-58
2023/01/10 07:06:30;;;;;;;;;;;;;;;4.16;97.50;101661.84;5088979;28;20010;-60
2023/01/10 07:08:55;;;;;;;;;;;;;;;4.13;97.57;101656.81;5085056;28;19963;-59
2023/01/10 07:11:20;;;;;;;;;;;;;;;4.11;97.68;101669.22;5086857;28;19985;-57
2023/01/10 07:13:46;;;;;;;;;;;;;;;4.06;97.39;101672.19;5088134;28;19920;-60
2023/01/10 07:16:13;;;;;;;;;;;;;;;4.03;97.49;101667.97;5086477;28;19989;-60
2023/01/10 07:18:39;;;;;;;;;;;;;;;3.98;97.83;101662.19;5070667;28;20351;-60
2023/01/10 07:21:04;;;;;;;;;;;;;;;3.98;97.91;101672.69;5092547;28;20647;-57
2023/01/10 07:23:30;;;;;;;;;;;;;;;4.02;97.83;101683.84;5071619;28;19916;-60
2023/01/10 07:25:55;;;;;;;;;;;;;;;4.06;97.88;101680.06;5080443;28;19970;-58
2023/01/10 07:28:20;;;;;;;;;;;;;;;4.11;97.81;101685.84;5073421;28;20368;-60
2023/01/10 07:30:46;;;;;;;;;;;;;;;4.16;98.09;101706.53;5073468;28;19971;-62
2023/01/10 07:33:11;;;;;;;;;;;;;;;4.19;98.01;101690.53;5071134;28;20383;-60
2023/01/10 07:35:36;;;;;;;;;;;;;;;4.22;98.20;101701.69;5076691;28;19924;-61
2023/01/10 07:38:02;;;;;;;;;;;;;;;4.26;97.77;101705.78;5072260;28;21341;-60
2023/01/10 07:40:27;;;;;;;;;;;;;;;4.30;97.72;101714.28;5074463;28;19916;-58
2023/01/10 07:42:56;;;;;;;;;;;;;;;4.31;97.95;101714.16;5073678;28;20003;-60
2023/01/10 07:45:22;;;;;;;;;;;;;;;4.36;97.78;101711.25;5080670;28;19969;-61
2023/01/10 07:47:47;;;;;;;;;;;;;;;4.38;97.45;101732.16;5085832;28;20288;-60
2023/01/10 07:50:12;;;;;;;;;;;;;;;4.39;97.52;101718.91;5083822;28;19955;-61
2023/01/10 07:52:37;;;;;;;;;;;;;;;4.42;97.22;101726.56;5081366;28;19923;-58
2023/01/10 07:55:03;;;;;;;;;;;;;;;4.45;97.08;101730.78;5091646;28;19924;-61
2023/01/10 07:57:28;;;;;;;;;;;;;;;4.47;97.25;101728.88;5082039;28;19923;-58
2023/01/10 07:59:53;;;;;;;;;;;;;;;4.48;96.67;101736.66;5087202;28;19912;-58
2023/01/10 08:02:18;;;;;;;;;;;;;;;4.48;96.53;101734.03;5085288;28;19931;-61
2023/01/10 08:04:44;;;;;;;;;;;;;;;4.49;96.55;101719.91;5085399;28;19943;-60
2023/01/10 08:07:09;;;;;;;;;;;;;;;4.50;96.53;101741.81;5090809;28;19919;-60
2023/01/10 08:09:36;;;;;;;;;;;;;;;4.48;96.37;101736.66;5079560;28;21286;-59
2023/01/10 08:12:01;;;;;;;;;;;;;;;4.49;96.62;101743.59;5087603;28;19924;-60
2023/01/10 08:14:26;;;;;;;;;;;;;;;4.49;96.44;101733.06;5077218;28;19920;-59
2023/01/10 08:16:51;;;;;;;;;;;;;;;4.48;96.20;101731.38;5084145;28;19948;-61
2023/01/10 08:19:17;;;;;;;;;;;;;;;4.48;96.20;101730.56;5080204;28;20423;-60
2023/01/10 08:21:42;;;;;;;;;;;;;;;4.45;95.91;101726.34;5096088;28;20628;-58
2023/01/10 08:24:08;;;;;;;;;;;;;;;4.42;95.78;101734.47;5080631;28;20394;-59
2023/01/10 08:26:33;;;;;;;;;;;;;;;4.42;95.82;101731.00;5076314;28;19924;-58
2023/01/10 08:28:59;;;;;;;;;;;;;;;4.39;95.85;101732.06;5074627;28;20348;-61
2023/01/10 08:31:24;;;;;;;;;;;;;;;4.38;95.57;101730.38;5069997;28;19950;-59
2023/01/10 08:33:49;;;;;;;;;;;;;;;4.35;95.73;101746.38;5076628;28;19920;-58
2023/01/10 08:36:15;;;;;;;;;;;;;;;4.34;95.59;101736.81;5075133;28;20323;-60
2023/01/10 08:38:40;;;;;;;;;;;;;;;4.31;95.54;101727.31;5082880;28;20296;-59
2023/01/10 08:41:06;;;;;;;;;;;;;;;4.29;95.37;101736.25;5087209;28;19920;-61
2023/01/10 08:43:31;;;;;;;;;;;;;;;4.26;95.51;101731.22;5094579;28;19912;-63
2023/01/10 08:45:56;;;;;;;;;;;;;;;4.23;95.70;101726.19;5093047;28;19916;-60
2023/01/10 08:48:22;;;;;;;;;;;;;;;4.22;95.71;101730.59;5081577;28;20441;-60
2023/01/10 08:50:47;;;;;;;;;;;;;;;4.20;95.91;101737.75;5080422;28;19916;-59
2023/01/10 08:53:12;;;;;;;;;;;;;;;4.19;95.74;101736.06;5081114;28;19920;-61
2023/01/10 08:55:37;;;;;;;;;;;;;;;4.20;95.88;101736.91;5082911;28;19924;-60
2023/01/10 08:58:03;;;;;;;;;;;;;;;4.19;95.76;101740.50;5085786;28;20007;-58
2023/01/10 09:00:28;;;;;;;;;;;;;;;4.16;96.06;101731.03;5088229;28;19912;-60
2023/01/10 09:02:53;;;;;;;;;;;;;;;4.16;96.06;101733.66;5088700;28;19932;-60
2023/01/10 09:05:18;;;;;;;;;;;;;;;4.17;96.10;101731.88;5081407;28;19996;-61
2023/01/10 09:07:45;;;;;;;;;;;;;;;4.17;95.83;101722.19;5079187;28;19918;-58
2023/01/10 09:10:10;;;;;;;;;;;;;;;4.18;96.14;101730.94;5085069;28;19912;-58
2023/01/10 09:12:54;;;;;;;;;;;;;;;4.18;95.87;101733.56;5071660;28;20294;-60
2023/01/10 09:15:20;;;;;;;;;;;;;;;4.19;96.11;101720.31;5082632;28;20399;-60
2023/01/10 09:17:46;;;;;;;;;;;;;;;4.20;95.94;101716.72;5080788;28;19919;-58
2023/01/10 09:20:11;;;;;;;;;;;;;;;4.21;96.11;101721.03;5089043;28;19916;-61
2023/01/10 09:22:37;;;;;;;;;;;;;;;4.23;96.01;101721.75;5080240;28;19920;-58
2023/01/10 09:25:02;;;;;;;;;;;;;;;4.24;96.06;101714.72;5087529;28;19912;-60
2023/01/10 09:27:27;;;;;;;;;;;;;;;4.24;96.24;101717.34;5086400;28;19923;-60
2023/01/10 09:29:52;;;;;;;;;;;;;;;4.26;95.67;101728.59;5086968;28;19912;-60
2023/01/10 09:32:18;;;;;;;;;;;;;;;4.26;95.81;101720.72;5085777;28;19991;-60
2023/01/10 09:34:43;;;;;;;;;;;;;;;4.29;95.43;101712.59;5094786;28;19998;-61
2023/01/10 09:37:09;;;;;;;;;;;;;;;4.30;95.54;101715.13;5074432;28;19920;-60
2023/01/10 09:39:34;;;;;;;;;;;;;;;4.34;95.24;101721.03;5080052;28;19916;-61
2023/01/10 09:42:11;;;;;;;;;;;;;;;4.36;95.47;101727.00;5085483;28;19912;-57
2023/01/10 09:44:36;;;;;;;;;;;;;;;4.41;95.19;101714.38;5082679;28;19919;-60
2023/01/10 09:47:07;;;;;;;;;;;;;;;4.43;95.02;101723.00;5096902;28;19912;-59
2023/01/10 09:49:46;;;;;;;;;;;;;;;4.46;95.09;101717.50;5081256;28;19999;-59
2023/01/10 09:52:20;;;;;;;;;;;;;;;4.50;94.98;101721.59;5073682;28;19968;-58
2023/01/10 09:54:46;;;;;;;;;;;;;;;4.54;94.58;101720.44;5082669;28;19958;-60
2023/01/10 09:57:18;;;;;;;;;;;;;;;4.58;94.73;101716.63;5083592;28;20025;-60
2023/01/10 09:59:47;;;;;;;;;;;;;;;4.62;94.65;101722.50;5076715;28;19962;-61
2023/01/10 10:02:17;;;;;;;;;;;;;;;4.65;94.35;101717.88;5093830;27;19916;-60
2023/01/10 10:04:46;;;;;;;;;;;;;;;4.70;94.08;101720.19;5081559;28;20284;-60
2023/01/10 10:07:13;;;;;;;;;;;;;;;4.73;93.75;101724.38;5080964;28;19920;-59
2023/01/10 10:09:38;;;;;;;;;;;;;;;4.77;93.45;101731.09;5082998;28;19992;-60
2023/01/10 10:12:03;;;;;;;;;;;;;;;4.79;93.74;101722.13;5075776;28;20011;-58
2023/01/10 10:14:31;;;;;;;;;;;;;;;4.82;93.34;101713.16;5078036;28;19912;-60
2023/01/10 10:17:05;;;;;;;;;;;;;;;4.84;93.31;101706.00;5079042;28;19977;-62
2023/01/10 10:19:59;;;;;;;;;;;;;;;4.87;93.55;101703.97;5080391;28;19916;-58
2023/01/10 10:22:27;;;;;;;;;;;;;;;4.90;93.19;101702.91;5088961;28;19920;-59
2023/01/10 10:25:07;;;;;;;;;;;;;;;4.93;93.17;101700.09;5085321;28;20380;-60
2023/01/10 10:27:35;;;;;;;;;;;;;;;4.96;93.20;101689.31;5083496;28;20430;-59
2023/01/10 10:30:10;;;;;;;;;;;;;;;4.99;93.21;101691.72;5082353;28;19913;-59
2023/01/10 10:32:35;;;;;;;;;;;;;;;5.00;93.04;101688.16;5083138;28;19950;-61
2023/01/10 10:35:14;;;;;;;;;;;;;;;5.03;93.17;101687.91;5093132;28;20287;-60
2023/01/10 10:37:47;;;;;;;;;;;;;;;5.06;93.12;101687.69;5088893;28;19931;-60
2023/01/10 10:40:12;;;;;;;;;;;;;;;5.09;93.24;101679.56;5084736;28;19913;-58
2023/01/10 10:42:40;;;;;;;;;;;;;;;5.13;92.89;101670.47;5086568;28;19920;-58
2023/01/10 10:45:14;;;;;;;;;;;;;;;5.16;92.91;101661.50;5080600;28;19916;-61
2023/01/10 10:47:42;;;;;;;;;;;;;;;5.20;93.08;101661.19;5083291;28;19923;-58
2023/01/10 10:50:13;;;;;;;;;;;;;;;5.23;92.80;101666.22;5083834;28;19916;-61
2023/01/10 10:52:39;;;;;;;;;;;;;;;5.26;92.91;101650.16;5094469;28;19923;-60
2023/01/10 10:55:05;;;;;;;;;;;;;;;5.29;92.99;101649.94;5075918;28;19916;-60
2023/01/10 10:57:32;;;;;;;;;;;;;;;5.33;93.03;101654.97;5074431;28;19921;-59
2023/01/10 10:59:58;;;;;;;;;;;;;;;5.35;92.91;101651.25;5071169;28;20395;-61
2023/01/10 11:02:29;;;;;;;;;;;;;;;5.36;92.76;101647.66;5085332;28;19916;-59
2023/01/10 11:05:05;;;;;;;;;;;;;;;5.39;92.48;101649.22;5083287;28;19915;-60
2023/01/10 11:07:33;;;;;;;;;;;;;;;5.40;92.24;101635.09;5081358;28;19916;-62
2023/01/10 11:12:31;;;;;;;;;;;;;;;5.44;91.81;101626.84;5073597;28;19919;-60
2023/01/10 11:14:57;;;;;;;;;;;;;;;5.48;92.02;101623.00;5070229;28;19963;-61
2023/01/10 11:17:30;;;;;;;;;;;;;;;5.50;91.91;101613.22;5070192;28;19959;-60
2023/01/10 11:19:59;;;;;;;;;;;;;;;5.56;92.06;101625.06;5082424;28;19923;-58
2023/01/10 11:22:26;;;;;;;;;;;;;;;5.60;92.08;101618.59;5078496;28;20458;-61
2023/01/10 11:24:53;;;;;;;;;;;;;;;5.64;92.02;101620.03;5078463;28;19963;-61
2023/01/10 11:27:22;;;;;;;;;;;;;;;5.68;92.00;101610.94;5073132;28;20417;-58
2023/01/10 11:29:50;;;;;;;;;;;;;;;5.70;91.91;101611.66;5074310;28;19926;-60
2023/01/10 11:32:36;;;;;;;;;;;;;;;5.74;91.75;101623.63;5076062;28;19951;-60
2023/01/10 11:35:05;;;;;;;;;;;;;;;5.77;91.37;101612.84;5084371;28;19917;-60
2023/01/10 11:37:32;;;;;;;;;;;;;;;5.81;90.99;101614.31;5081321;28;19928;-60
2023/01/10 11:40:06;;;;;;;;;;;;;;;5.84;91.23;101616.69;5082390;28;19920;-60
2023/01/10 11:42:32;;;;;;;;;;;;;;;5.87;91.07;101618.25;5077084;28;19916;-60
2023/01/10 11:45:15;;;;;;;;;;;;;;;5.88;90.89;101604.94;5085137;28;19928;-61
2023/01/10 11:47:42;;;;;;;;;;;;;;;5.90;90.88;101597.78;5077477;28;19924;-60
2023/01/10 11:50:08;;;;;;;;;;;;;;;5.93;91.00;101591.44;5088505;28;19920;-61
2023/01/10 11:52:34;;;;;;;;;;;;;;;5.93;90.80;101591.44;5084892;28;19923;-60
2023/01/10 11:54:59;;;;;;;;;;;;;;;5.96;90.71;101595.63;5081731;28;19912;-57
2023/01/10 11:57:26;;;;;;;;;;;;;;;5.96;90.38;101599.09;5094888;28;20443;-60
2023/01/10 11:59:52;;;;;;;;;;;;;;;5.96;90.17;101595.63;5094880;28;19912;-61
2023/01/10 12:02:25;;;;;;;;;;;;;;;5.98;90.28;101593.69;5082168;28;19924;-60
2023/01/10 12:04:51;;;;;;;;;;;;;;;5.93;89.93;101583.50;5088375;28;20398;-58
2023/01/10 12:07:17;;;;;;;;;;;;;;;6.01;90.13;101580.25;5077912;28;20369;-57
2023/01/10 12:09:43;;;;;;;;;;;;;;;6.02;90.23;101577.50;5083699;28;19920;-58
2023/01/10 12:12:16;;;;;;;;;;;;;;;6.04;89.91;101569.47;5088539;28;19916;-61
2023/01/10 12:14:42;;;;;;;;;;;;;;;6.06;90.21;101568.38;5078084;28;19982;-59
2023/01/10 12:17:10;;;;;;;;;;;;;;;6.07;89.75;101574.50;5082744;28;20419;-60
2023/01/10 12:19:35;;;;;;;;;;;;;;;6.08;90.10;101565.66;5091271;28;19957;-57
2023/01/10 12:22:03;;;;;;;;;;;;;;;6.08;89.50;101548.03;5087742;28;19912;-58
2023/01/10 12:24:31;;;;;;;;;;;;;;;6.11;89.43;101554.84;5083593;28;19922;-59
2023/01/10 12:26:58;;;;;;;;;;;;;;;6.12;89.41;101536.25;5084294;28;19912;-60
2023/01/10 12:29:26;;;;;;;;;;;;;;;6.14;89.38;101549.31;5080907;28;19927;-60
2023/01/10 12:31:52;;;;;;;;;;;;;;;6.15;89.39;101540.44;5083265;28;20304;-60
2023/01/10 12:34:19;;;;;;;;;;;;;;;6.15;89.30;101536.00;5083186;28;19969;-58
2023/01/10 12:36:59;;;;;;;;;;;;;;;6.18;89.52;101524.38;5086478;28;19920;-62
2023/01/10 12:39:32;;;;;;;;;;;;;;;6.19;89.20;101526.88;5087707;28;19912;-60
2023/01/10 12:44:42;;;;;;;;;;;;;;;6.24;88.79;101515.13;5078034;28;19927;-60
2023/01/10 12:47:26;;;;;;;;;;;;;;;6.25;88.70;101514.16;5082957;28;19982;-60
2023/01/10 12:49:52;;;;;;;;;;;;;;;6.26;88.86;101502.63;5080039;28;20468;-59
2023/01/10 12:52:21;;;;;;;;;;;;;;;6.27;88.62;101504.31;5081611;28;19981;-61
2023/01/10 12:54:47;;;;;;;;;;;;;;;6.27;88.46;101502.50;5085208;28;20436;-57
2023/01/10 12:57:21;;;;;;;;;;;;;;;6.27;88.30;101507.78;5087048;28;19951;-58